Terminal Aerodrome Forecast
Issued by NWS

Home | Current Version | Previous Version | Graphics & Text | Print | Product List | Glossary On
Versions: 1 2 3 4 5 6 7 8 9 10 11 12 13 14 15 16 17 18 19 20 21
371
FTUS43 KBIS 010525
TAFMOT
TAF
KMOT 010525Z 0106/0206 31011KT P6SM OVC008
     FM010800 32006KT P6SM OVC007
     FM011800 36004KT P6SM OVC010
     FM020000 03004KT P6SM OVC008=

USA.gov is the U.S. government's official web portal to all federal, state and local government web resources and services.